createdAt,value
2023-03-29T00:00:18.373Z,18.64
2023-03-29T00:00:49.852Z,18.64
2023-03-29T00:01:35.044Z,18.65
2023-03-29T00:02:07.906Z,18.64
2023-03-29T00:02:39.512Z,18.63
2023-03-29T00:03:11.196Z,18.63
2023-03-29T00:03:42.797Z,18.62
2023-03-29T00:04:14.294Z,18.62
2023-03-29T00:04:45.791Z,18.61
2023-03-29T00:05:17.248Z,18.62
2023-03-29T00:05:48.652Z,18.59
2023-03-29T00:06:20.035Z,18.60
2023-03-29T00:06:51.441Z,18.61
2023-03-29T00:07:22.829Z,18.60
2023-03-29T00:07:54.491Z,18.59
2023-03-29T00:08:25.963Z,18.60
2023-03-29T00:08:57.379Z,18.60
2023-03-29T00:09:28.779Z,18.59
2023-03-29T00:10:00.214Z,18.57
2023-03-29T00:10:31.624Z,18.56
2023-03-29T00:11:03.282Z,18.56
2023-03-29T00:11:34.959Z,18.56
2023-03-29T00:12:06.357Z,18.55
2023-03-29T00:12:37.752Z,18.54
2023-03-29T00:13:09.177Z,18.54
2023-03-29T00:13:40.592Z,18.55
2023-03-29T00:14:11.995Z,18.54
2023-03-29T00:14:43.428Z,18.53
2023-03-29T00:15:14.845Z,18.54
2023-03-29T00:15:46.238Z,18.52
2023-03-29T00:16:17.668Z,18.51
2023-03-29T00:16:49.190Z,18.52
2023-03-29T00:17:20.612Z,18.53
2023-03-29T00:17:52.042Z,18.52
2023-03-29T00:18:23.452Z,18.52
2023-03-29T00:18:54.861Z,18.52
2023-03-29T00:19:26.261Z,18.51
2023-03-29T00:19:57.714Z,18.51
2023-03-29T00:20:29.151Z,18.50
2023-03-29T00:21:00.678Z,18.49
2023-03-29T00:21:32.240Z,18.48
2023-03-29T00:22:03.643Z,18.49
2023-03-29T00:22:35.051Z,18.47
2023-03-29T00:23:06.453Z,18.49
2023-03-29T00:23:37.854Z,18.49
2023-03-29T00:24:09.470Z,18.47
2023-03-29T00:24:40.959Z,18.46
2023-03-29T00:25:12.394Z,18.45
2023-03-29T00:25:43.795Z,18.46
2023-03-29T00:26:15.203Z,18.46
2023-03-29T00:26:46.596Z,18.46
2023-03-29T00:27:17.988Z,18.44
2023-03-29T00:27:49.382Z,18.44
2023-03-29T00:28:20.805Z,18.44
2023-03-29T00:28:52.205Z,18.45
2023-03-29T00:29:23.608Z,18.43
2023-03-29T00:29:55.020Z,18.43
2023-03-29T00:30:26.437Z,18.43
2023-03-29T00:30:57.860Z,18.42
2023-03-29T00:31:29.312Z,18.41
2023-03-29T00:32:00.737Z,18.41
2023-03-29T00:32:32.188Z,18.41
2023-03-29T00:33:03.636Z,18.42
2023-03-29T00:33:35.071Z,18.40
2023-03-29T00:34:06.466Z,18.38
2023-03-29T00:34:37.871Z,18.40
2023-03-29T00:35:09.309Z,18.39
2023-03-29T00:35:40.730Z,18.39
2023-03-29T00:36:12.187Z,18.38
2023-03-29T00:36:43.607Z,18.39
2023-03-29T00:37:15.070Z,18.38
2023-03-29T00:37:46.490Z,18.36
2023-03-29T00:38:17.908Z,18.36
2023-03-29T00:38:49.298Z,18.37
2023-03-29T00:39:20.709Z,18.35
2023-03-29T00:39:52.092Z,18.35
2023-03-29T00:40:23.530Z,18.35
2023-03-29T00:40:54.925Z,18.36
2023-03-29T00:41:26.345Z,18.34
2023-03-29T00:41:57.783Z,18.33
2023-03-29T00:42:29.201Z,18.32
2023-03-29T00:43:00.617Z,18.32
2023-03-29T00:43:32.078Z,18.32
2023-03-29T00:44:03.476Z,18.33
2023-03-29T00:44:34.895Z,18.32
2023-03-29T00:45:06.323Z,18.33
2023-03-29T00:45:37.768Z,18.30
2023-03-29T00:46:09.227Z,18.31
2023-03-29T00:46:40.678Z,18.30
2023-03-29T00:47:12.097Z,18.31
2023-03-29T00:47:43.504Z,18.30
2023-03-29T00:48:14.940Z,18.31
2023-03-29T00:48:46.330Z,18.29
2023-03-29T00:49:17.745Z,18.29
2023-03-29T00:49:49.164Z,18.29
2023-03-29T00:50:20.565Z,18.29
2023-03-29T00:50:52.004Z,18.27
2023-03-29T00:51:23.417Z,18.28
2023-03-29T00:51:54.858Z,18.27
2023-03-29T00:52:26.252Z,18.28
2023-03-29T00:52:57.642Z,18.28
2023-03-29T00:53:29.035Z,18.26
2023-03-29T00:54:00.443Z,18.26
2023-03-29T00:54:31.853Z,18.26
2023-03-29T00:55:03.295Z,18.27
2023-03-29T00:55:34.716Z,18.26
2023-03-29T00:56:06.137Z,18.26
2023-03-29T00:56:37.633Z,18.25
2023-03-29T00:57:09.117Z,18.24
2023-03-29T00:57:40.549Z,18.24
2023-03-29T00:58:11.937Z,18.24
2023-03-29T00:58:43.352Z,18.25
2023-03-29T00:59:14.775Z,18.24
2023-03-29T00:59:46.173Z,18.24
2023-03-29T01:00:17.593Z,18.23
2023-03-29T01:00:49.004Z,18.20
2023-03-29T01:01:20.437Z,18.19
2023-03-29T01:01:51.906Z,18.17
2023-03-29T01:02:23.340Z,18.19
2023-03-29T01:02:54.980Z,18.20
2023-03-29T01:03:26.645Z,18.20
2023-03-29T01:03:58.103Z,18.19
2023-03-29T01:04:29.667Z,18.20
2023-03-29T01:05:01.114Z,18.19
2023-03-29T01:05:32.516Z,18.17
2023-03-29T01:06:03.962Z,18.17
2023-03-29T01:06:35.547Z,18.18
2023-03-29T01:07:07.136Z,18.18
2023-03-29T01:07:38.694Z,18.17
2023-03-29T01:08:10.096Z,18.17
2023-03-29T01:08:41.521Z,18.17
2023-03-29T01:09:12.924Z,18.17
2023-03-29T01:09:44.317Z,18.17
2023-03-29T01:10:15.723Z,18.15
2023-03-29T01:10:47.111Z,18.15
2023-03-29T01:11:18.531Z,18.15
2023-03-29T01:11:49.937Z,18.14
2023-03-29T01:12:21.354Z,18.14
2023-03-29T01:12:52.755Z,18.14
2023-03-29T01:13:24.142Z,18.13
2023-03-29T01:13:55.545Z,18.13
2023-03-29T01:14:26.934Z,18.12
2023-03-29T01:14:58.360Z,18.12
2023-03-29T01:15:29.767Z,18.12
2023-03-29T01:16:01.262Z,18.10
2023-03-29T01:16:32.752Z,18.10
2023-03-29T01:17:04.201Z,18.09
2023-03-29T01:17:35.646Z,18.10
2023-03-29T01:18:07.092Z,18.05
2023-03-29T01:18:38.525Z,18.09
2023-03-29T01:19:09.935Z,18.08
2023-03-29T01:19:41.341Z,18.08
2023-03-29T01:20:12.743Z,18.07
2023-03-29T01:20:44.152Z,18.08
2023-03-29T01:21:15.573Z,18.08
2023-03-29T01:21:46.983Z,18.07
2023-03-29T01:22:18.400Z,18.06
2023-03-29T01:22:49.799Z,18.06
2023-03-29T01:23:21.204Z,18.06
2023-03-29T01:23:52.621Z,18.06
2023-03-29T01:24:24.036Z,18.06
2023-03-29T01:24:55.432Z,18.05
2023-03-29T01:25:26.883Z,18.06
2023-03-29T01:25:58.294Z,18.06
2023-03-29T01:26:29.741Z,18.04
2023-03-29T01:27:01.132Z,18.05
2023-03-29T01:27:32.517Z,18.04
2023-03-29T01:28:03.930Z,18.05
2023-03-29T01:28:35.357Z,18.03
2023-03-29T01:29:06.753Z,18.04
2023-03-29T01:29:38.165Z,18.02
2023-03-29T01:30:09.581Z,18.02
2023-03-29T01:30:40.985Z,18.03
2023-03-29T01:31:12.377Z,18.02
2023-03-29T01:31:43.867Z,17.99
2023-03-29T01:32:15.289Z,18.01
2023-03-29T01:32:46.725Z,18.01
2023-03-29T01:33:18.145Z,18.00
2023-03-29T01:33:49.549Z,18.00
2023-03-29T01:34:21.010Z,18.00
2023-03-29T01:34:52.412Z,18.01
2023-03-29T01:35:23.807Z,18.00
2023-03-29T01:35:55.269Z,18.00
2023-03-29T01:36:26.686Z,17.98
2023-03-29T01:36:58.127Z,17.99
2023-03-29T01:37:29.541Z,17.99
2023-03-29T01:38:00.939Z,17.99
2023-03-29T01:38:32.351Z,17.97
2023-03-29T01:39:03.767Z,17.98
2023-03-29T01:39:35.181Z,17.96
2023-03-29T01:40:06.601Z,17.95
2023-03-29T01:40:37.994Z,17.96
2023-03-29T01:41:09.403Z,17.96
2023-03-29T01:41:40.805Z,17.96
2023-03-29T01:42:12.214Z,17.96
2023-03-29T01:42:43.648Z,17.96
2023-03-29T01:43:15.076Z,17.96
2023-03-29T01:43:46.475Z,17.96
2023-03-29T01:44:17.897Z,17.94
2023-03-29T01:44:49.289Z,17.95
2023-03-29T01:45:20.699Z,17.93
2023-03-29T01:45:52.128Z,17.94
2023-03-29T01:46:23.619Z,17.94
2023-03-29T01:46:55.066Z,17.94
2023-03-29T01:47:26.501Z,17.92
2023-03-29T01:47:57.933Z,17.91
2023-03-29T01:48:29.365Z,17.92
2023-03-29T01:49:00.785Z,17.91
2023-03-29T01:49:32.194Z,17.91
2023-03-29T01:50:03.616Z,17.90
2023-03-29T01:50:35.035Z,17.90
2023-03-29T01:51:06.442Z,17.90
2023-03-29T01:51:37.843Z,17.89
2023-03-29T01:52:09.418Z,17.90
2023-03-29T01:52:40.827Z,17.90
2023-03-29T01:53:12.262Z,17.90
2023-03-29T01:53:43.670Z,17.88
2023-03-29T01:54:15.080Z,17.88
2023-03-29T01:54:46.472Z,17.89
2023-03-29T01:55:17.891Z,17.87
2023-03-29T01:55:49.307Z,17.88
2023-03-29T01:56:20.719Z,17.87
2023-03-29T01:56:52.169Z,17.87
2023-03-29T01:57:23.707Z,17.87
2023-03-29T01:57:55.160Z,17.87
2023-03-29T01:58:26.570Z,17.87
2023-03-29T01:58:57.985Z,17.87
2023-03-29T01:59:29.383Z,17.86
2023-03-29T02:00:00.837Z,17.86
2023-03-29T02:00:32.257Z,17.86
2023-03-29T02:01:03.880Z,17.85
2023-03-29T02:01:35.577Z,17.85
2023-03-29T02:02:07.005Z,17.85
2023-03-29T02:02:38.550Z,17.83
2023-03-29T02:03:10.128Z,17.83
2023-03-29T02:03:41.632Z,17.83
2023-03-29T02:04:13.091Z,17.83
2023-03-29T02:04:44.519Z,17.82
2023-03-29T02:05:15.921Z,17.84
2023-03-29T02:05:47.317Z,17.83
2023-03-29T02:06:18.727Z,17.83
2023-03-29T02:06:50.126Z,17.82
2023-03-29T02:07:21.546Z,17.81
2023-03-29T02:07:52.995Z,17.81
2023-03-29T02:08:24.415Z,17.81
2023-03-29T02:08:55.828Z,17.82
2023-03-29T02:09:27.233Z,17.82
2023-03-29T02:09:58.640Z,17.82
2023-03-29T02:10:30.045Z,17.81
2023-03-29T02:11:01.626Z,17.81
2023-03-29T02:11:33.279Z,17.79
2023-03-29T02:12:04.689Z,17.80
2023-03-29T02:12:36.088Z,17.80
2023-03-29T02:13:07.529Z,17.78
2023-03-29T02:13:38.929Z,17.80
2023-03-29T02:14:10.384Z,17.78
2023-03-29T02:14:41.779Z,17.79
2023-03-29T02:15:13.187Z,17.75
2023-03-29T02:15:44.629Z,17.78
2023-03-29T02:16:16.158Z,17.78
2023-03-29T02:16:47.596Z,17.78
2023-03-29T02:17:18.999Z,17.77
2023-03-29T02:17:50.453Z,17.76
2023-03-29T02:18:21.902Z,17.76
2023-03-29T02:18:53.304Z,17.76
2023-03-29T02:19:24.726Z,17.76
2023-03-29T02:19:56.140Z,17.76
2023-03-29T02:20:27.549Z,17.73
2023-03-29T02:20:59.192Z,17.74
2023-03-29T02:21:30.718Z,17.75
2023-03-29T02:22:02.118Z,17.74
2023-03-29T02:22:33.541Z,17.75
2023-03-29T02:23:04.950Z,17.74
2023-03-29T02:23:36.384Z,17.74
2023-03-29T02:24:07.787Z,17.72
2023-03-29T02:24:39.243Z,17.73
2023-03-29T02:25:10.658Z,17.72
2023-03-29T02:25:42.080Z,17.72
2023-03-29T02:26:13.489Z,17.72
2023-03-29T02:26:44.902Z,17.72
2023-03-29T02:27:16.301Z,17.72
2023-03-29T02:27:47.695Z,17.73
2023-03-29T02:28:19.084Z,17.72
2023-03-29T02:28:50.479Z,17.72
2023-03-29T02:29:21.896Z,17.73
2023-03-29T02:29:53.302Z,17.72
2023-03-29T02:30:24.741Z,17.71
2023-03-29T02:30:56.172Z,17.70
2023-03-29T02:31:27.619Z,17.71
2023-03-29T02:31:59.034Z,17.71
2023-03-29T02:32:30.479Z,17.71
2023-03-29T02:33:01.966Z,17.71
2023-03-29T02:33:33.489Z,17.71
2023-03-29T02:34:04.892Z,17.70
2023-03-29T02:34:36.280Z,17.69
2023-03-29T02:35:07.685Z,17.69
2023-03-29T02:35:39.166Z,17.69
2023-03-29T02:36:10.639Z,17.67
2023-03-29T02:36:42.068Z,17.68
2023-03-29T02:37:13.474Z,17.67
2023-03-29T02:37:44.897Z,17.68
2023-03-29T02:38:16.308Z,17.67
2023-03-29T02:38:47.712Z,17.67
2023-03-29T02:39:19.152Z,17.66
2023-03-29T02:39:50.569Z,17.65
2023-03-29T02:40:22.012Z,17.66
2023-03-29T02:40:53.423Z,17.67
2023-03-29T02:41:24.838Z,17.66
2023-03-29T02:41:56.229Z,17.65
2023-03-29T02:42:27.641Z,17.65
2023-03-29T02:42:59.025Z,17.66
2023-03-29T02:43:30.434Z,17.66
2023-03-29T02:44:01.850Z,17.65
2023-03-29T02:44:33.245Z,17.65
2023-03-29T02:45:04.658Z,17.65
2023-03-29T02:45:36.150Z,17.65
2023-03-29T02:46:07.571Z,17.65
2023-03-29T02:46:39.033Z,17.64
2023-03-29T02:47:10.486Z,17.65
2023-03-29T02:47:42.043Z,17.64
2023-03-29T02:48:13.484Z,17.64
2023-03-29T02:48:44.897Z,17.63
2023-03-29T02:49:16.297Z,17.63
2023-03-29T02:49:47.699Z,17.63
2023-03-29T02:50:19.176Z,17.63
2023-03-29T02:50:50.598Z,17.62
2023-03-29T02:51:22.032Z,17.62
2023-03-29T02:51:53.444Z,17.61
2023-03-29T02:52:24.842Z,17.61
2023-03-29T02:52:56.260Z,17.62
2023-03-29T02:53:27.673Z,17.61
2023-03-29T02:53:59.068Z,17.62
2023-03-29T02:54:30.479Z,17.61
2023-03-29T02:55:01.885Z,17.61
2023-03-29T02:55:33.275Z,17.59
2023-03-29T02:56:04.692Z,17.59
2023-03-29T02:56:36.105Z,17.60
2023-03-29T02:57:07.556Z,17.60
2023-03-29T02:57:38.968Z,17.59
2023-03-29T02:58:10.366Z,17.60
2023-03-29T02:58:41.773Z,17.60
2023-03-29T02:59:14.371Z,17.59
2023-03-29T02:59:45.871Z,17.59
2023-03-29T03:00:17.287Z,17.60
2023-03-29T03:00:48.828Z,17.59
2023-03-29T03:01:20.476Z,17.57
2023-03-29T03:01:52.748Z,17.59
2023-03-29T03:02:24.348Z,17.58
2023-03-29T03:02:55.862Z,17.58
2023-03-29T03:03:27.517Z,17.58
2023-03-29T03:03:59.088Z,17.58
2023-03-29T03:04:30.540Z,17.57
2023-03-29T03:05:01.949Z,17.57
2023-03-29T03:05:33.364Z,17.57
2023-03-29T03:06:04.813Z,17.56
2023-03-29T03:06:36.221Z,17.57
2023-03-29T03:07:07.650Z,17.56
2023-03-29T03:07:39.052Z,17.56
2023-03-29T03:08:10.472Z,17.55
2023-03-29T03:08:41.888Z,17.56
2023-03-29T03:09:13.291Z,17.56
2023-03-29T03:09:44.691Z,17.55
2023-03-29T03:10:16.111Z,17.56
2023-03-29T03:10:47.516Z,17.56
2023-03-29T03:11:18.943Z,17.53
2023-03-29T03:11:50.354Z,17.54
2023-03-29T03:12:21.793Z,17.54
2023-03-29T03:12:53.202Z,17.55
2023-03-29T03:13:24.594Z,17.55
2023-03-29T03:13:56.005Z,17.54
2023-03-29T03:14:27.415Z,17.55
2023-03-29T03:14:58.810Z,17.53
2023-03-29T03:15:30.206Z,17.54
2023-03-29T03:16:01.633Z,17.54
2023-03-29T03:16:33.109Z,17.53
2023-03-29T03:17:04.911Z,17.54
2023-03-29T03:17:36.503Z,17.53
2023-03-29T03:18:07.960Z,17.53
2023-03-29T03:18:39.380Z,17.53
2023-03-29T03:19:10.794Z,17.53
2023-03-29T03:19:42.207Z,17.53
2023-03-29T03:20:13.648Z,17.53
2023-03-29T03:20:45.077Z,17.52
2023-03-29T03:21:16.477Z,17.52
2023-03-29T03:21:47.905Z,17.51
2023-03-29T03:22:19.324Z,17.51
2023-03-29T03:22:50.754Z,17.51
2023-03-29T03:23:22.174Z,17.50
2023-03-29T03:23:53.588Z,17.49
2023-03-29T03:24:24.997Z,17.49
2023-03-29T03:24:56.408Z,17.51
2023-03-29T03:25:27.800Z,17.50
2023-03-29T03:25:59.271Z,17.49
2023-03-29T03:26:30.726Z,17.48
2023-03-29T03:27:02.185Z,17.48
2023-03-29T03:27:33.578Z,17.49
2023-03-29T03:28:04.996Z,17.47
2023-03-29T03:28:36.396Z,17.47
2023-03-29T03:29:07.800Z,17.47
2023-03-29T03:29:39.217Z,17.47
2023-03-29T03:30:10.625Z,17.48
2023-03-29T03:30:42.034Z,17.47
2023-03-29T03:31:13.461Z,17.48
2023-03-29T03:31:44.970Z,17.47
2023-03-29T03:32:16.447Z,17.47
2023-03-29T03:32:47.874Z,17.46
2023-03-29T03:33:19.338Z,17.45
2023-03-29T03:33:50.739Z,17.44
2023-03-29T03:34:22.151Z,17.45
2023-03-29T03:34:53.567Z,17.46
2023-03-29T03:35:24.960Z,17.46
2023-03-29T03:35:56.454Z,17.45
2023-03-29T03:36:27.875Z,17.45
2023-03-29T03:36:59.282Z,17.43
2023-03-29T03:37:30.705Z,17.45
2023-03-29T03:38:02.112Z,17.43
2023-03-29T03:38:33.547Z,17.43
2023-03-29T03:39:04.983Z,17.43
2023-03-29T03:39:36.409Z,17.41
2023-03-29T03:40:07.806Z,17.42
2023-03-29T03:40:39.215Z,17.43
2023-03-29T03:41:10.632Z,17.40
2023-03-29T03:41:42.031Z,17.41
2023-03-29T03:42:13.464Z,17.40
2023-03-29T03:42:44.904Z,17.40
2023-03-29T03:43:16.311Z,17.41
2023-03-29T03:43:47.702Z,17.41
2023-03-29T03:44:19.098Z,17.42
2023-03-29T03:44:50.533Z,17.41
2023-03-29T03:45:21.929Z,17.40
2023-03-29T03:45:53.371Z,17.41
2023-03-29T03:46:25.299Z,17.40
2023-03-29T03:46:57.643Z,17.40
2023-03-29T03:47:29.054Z,17.40
2023-03-29T03:48:00.542Z,17.40
2023-03-29T03:48:31.961Z,17.39
2023-03-29T03:49:03.386Z,17.40
2023-03-29T03:49:34.784Z,17.39
2023-03-29T03:50:06.244Z,17.38
2023-03-29T03:50:37.638Z,17.39
2023-03-29T03:51:09.042Z,17.38
2023-03-29T03:51:40.487Z,17.38
2023-03-29T03:52:11.900Z,17.38
2023-03-29T03:52:43.413Z,17.37
2023-03-29T03:53:14.823Z,17.36
2023-03-29T03:53:46.235Z,17.37
2023-03-29T03:54:17.681Z,17.38
2023-03-29T03:54:49.088Z,17.36
2023-03-29T03:55:20.494Z,17.36
2023-03-29T03:55:51.893Z,17.37
2023-03-29T03:56:23.296Z,17.37
2023-03-29T03:56:54.729Z,17.36
2023-03-29T03:57:26.186Z,17.37
2023-03-29T03:57:57.624Z,17.36
2023-03-29T03:58:29.033Z,17.35
2023-03-29T03:59:00.463Z,17.36
2023-03-29T03:59:31.869Z,17.33
2023-03-29T04:00:03.266Z,17.33
2023-03-29T04:00:34.673Z,17.33
2023-03-29T04:01:06.086Z,17.33
2023-03-29T04:01:37.498Z,17.34
2023-03-29T04:02:08.921Z,17.33
2023-03-29T04:02:40.400Z,17.34
2023-03-29T04:03:11.996Z,17.32
2023-03-29T04:03:43.550Z,17.32
2023-03-29T04:04:15.040Z,17.32
2023-03-29T04:04:46.499Z,17.31
2023-03-29T04:05:17.925Z,17.30
2023-03-29T04:05:49.338Z,17.31
2023-03-29T04:06:20.731Z,17.31
2023-03-29T04:06:52.141Z,17.32
2023-03-29T04:07:23.543Z,17.32
2023-03-29T04:07:54.946Z,17.31
2023-03-29T04:08:26.341Z,17.31
2023-03-29T04:08:57.756Z,17.32
2023-03-29T04:09:29.223Z,17.31
2023-03-29T04:10:00.638Z,17.31
2023-03-29T04:10:32.060Z,17.32
2023-03-29T04:11:03.595Z,17.30
2023-03-29T04:11:35.225Z,17.30
2023-03-29T04:12:06.617Z,17.29
2023-03-29T04:12:38.025Z,17.29
2023-03-29T04:13:09.440Z,17.29
2023-03-29T04:13:40.844Z,17.29
2023-03-29T04:14:12.266Z,17.29
2023-03-29T04:14:43.805Z,17.29
2023-03-29T04:15:15.213Z,17.28
2023-03-29T04:15:46.643Z,17.28
2023-03-29T04:16:18.168Z,17.27
2023-03-29T04:16:49.623Z,17.27
2023-03-29T04:17:21.033Z,17.28
2023-03-29T04:17:52.567Z,17.28
2023-03-29T04:18:24.266Z,17.27
2023-03-29T04:18:55.855Z,17.27
2023-03-29T04:19:27.286Z,17.26
2023-03-29T04:19:58.737Z,17.26
2023-03-29T04:20:30.165Z,17.27
2023-03-29T04:21:01.722Z,17.27
2023-03-29T04:21:33.280Z,17.26
2023-03-29T04:22:04.681Z,17.25
2023-03-29T04:22:36.090Z,17.24
2023-03-29T04:23:07.559Z,17.25
2023-03-29T04:23:38.960Z,17.24
2023-03-29T04:24:10.406Z,17.23
2023-03-29T04:24:41.813Z,17.24
2023-03-29T04:25:13.231Z,17.25
2023-03-29T04:25:44.696Z,17.24
2023-03-29T04:26:16.090Z,17.24
2023-03-29T04:26:47.499Z,17.25
2023-03-29T04:27:18.895Z,17.24
2023-03-29T04:27:50.301Z,17.23
2023-03-29T04:28:21.703Z,17.25
2023-03-29T04:28:53.132Z,17.24
2023-03-29T04:29:24.557Z,17.24
2023-03-29T04:29:55.970Z,17.25
2023-03-29T04:30:27.401Z,17.24
2023-03-29T04:30:58.850Z,17.24
2023-03-29T04:31:30.341Z,17.25
2023-03-29T04:32:01.748Z,17.24
2023-03-29T04:32:33.223Z,17.25
2023-03-29T04:33:04.729Z,17.25
2023-03-29T04:33:36.228Z,17.25
2023-03-29T04:34:07.631Z,17.25
2023-03-29T04:34:39.042Z,17.24
2023-03-29T04:35:10.519Z,17.24
2023-03-29T04:35:41.957Z,17.25
2023-03-29T04:36:13.461Z,17.26
2023-03-29T04:36:44.888Z,17.25
2023-03-29T04:37:16.291Z,17.25
2023-03-29T04:37:47.829Z,17.25
2023-03-29T04:38:19.275Z,17.25
2023-03-29T04:38:50.665Z,17.25
2023-03-29T04:39:22.087Z,17.25
2023-03-29T04:39:53.497Z,17.25
2023-03-29T04:40:24.915Z,17.26
2023-03-29T04:40:56.324Z,17.26
2023-03-29T04:41:27.736Z,17.27
2023-03-29T04:41:59.149Z,17.27
2023-03-29T04:42:30.567Z,17.27
2023-03-29T04:43:01.965Z,17.27
2023-03-29T04:43:33.395Z,17.26
2023-03-29T04:44:04.800Z,17.27
2023-03-29T04:44:36.236Z,17.26
2023-03-29T04:45:07.694Z,17.27
2023-03-29T04:45:39.136Z,17.29
2023-03-29T04:46:10.616Z,17.28
2023-03-29T04:46:42.046Z,17.29
2023-03-29T04:47:13.529Z,17.30
2023-03-29T04:47:44.969Z,17.30
2023-03-29T04:48:16.581Z,17.30
2023-03-29T04:48:47.986Z,17.30
2023-03-29T04:49:19.381Z,17.30
2023-03-29T04:49:50.784Z,17.30
2023-03-29T04:50:22.185Z,17.30
2023-03-29T04:50:53.598Z,17.31
2023-03-29T04:51:25.026Z,17.31
2023-03-29T04:51:56.421Z,17.31
2023-03-29T04:52:27.839Z,17.31
2023-03-29T04:52:59.385Z,17.31
2023-03-29T04:53:30.815Z,17.32
2023-03-29T04:54:02.222Z,17.32
2023-03-29T04:54:33.668Z,17.33
2023-03-29T04:55:05.076Z,17.33
2023-03-29T04:55:36.468Z,17.32
2023-03-29T04:56:07.869Z,17.32
2023-03-29T04:56:39.335Z,17.33
2023-03-29T04:57:10.804Z,17.33
2023-03-29T04:57:42.189Z,17.33
2023-03-29T04:58:13.604Z,17.33
2023-03-29T04:58:45.006Z,17.34
2023-03-29T04:59:16.412Z,17.34
2023-03-29T04:59:47.836Z,17.33
2023-03-29T05:00:19.255Z,17.34
2023-03-29T05:00:50.645Z,17.34
2023-03-29T05:01:22.064Z,17.34
2023-03-29T05:01:53.513Z,17.33
2023-03-29T05:02:25.008Z,17.33
2023-03-29T05:02:56.456Z,17.34
2023-03-29T05:03:27.876Z,17.34
2023-03-29T05:03:59.327Z,17.34
2023-03-29T05:04:30.800Z,17.36
2023-03-29T05:05:02.558Z,17.35
2023-03-29T05:05:34.004Z,17.35
2023-03-29T05:06:06.084Z,17.36
2023-03-29T05:06:38.019Z,17.34
2023-03-29T05:07:09.949Z,17.35
2023-03-29T05:07:41.747Z,17.36
2023-03-29T05:08:13.230Z,17.35
2023-03-29T05:08:44.971Z,17.36
2023-03-29T05:09:16.861Z,17.35
2023-03-29T05:09:48.672Z,17.34
2023-03-29T05:10:20.147Z,17.36
2023-03-29T05:10:51.540Z,17.35
2023-03-29T05:11:22.950Z,17.35
2023-03-29T05:11:54.356Z,17.36
2023-03-29T05:12:25.784Z,17.36
2023-03-29T05:12:57.188Z,17.36
2023-03-29T05:13:28.630Z,17.34
2023-03-29T05:14:00.041Z,17.37
2023-03-29T05:14:31.455Z,17.36
2023-03-29T05:15:02.876Z,17.35
2023-03-29T05:15:34.302Z,17.36
2023-03-29T05:16:05.771Z,17.37
2023-03-29T05:16:37.251Z,17.37
2023-03-29T05:17:08.674Z,17.36
2023-03-29T05:17:40.098Z,17.37
2023-03-29T05:18:11.693Z,17.36
2023-03-29T05:18:43.323Z,17.37
2023-03-29T05:19:15.024Z,17.37
2023-03-29T05:19:46.507Z,17.37
2023-03-29T05:20:18.237Z,17.36
2023-03-29T05:20:50.113Z,17.37
2023-03-29T05:21:21.591Z,17.37
2023-03-29T05:21:53.024Z,17.37
2023-03-29T05:22:24.425Z,17.37
2023-03-29T05:22:55.879Z,17.37
2023-03-29T05:23:27.299Z,17.38
2023-03-29T05:23:58.712Z,17.38
2023-03-29T05:24:30.109Z,17.37
2023-03-29T05:25:01.502Z,17.37
2023-03-29T05:25:32.957Z,17.37
2023-03-29T05:26:04.353Z,17.37
2023-03-29T05:26:35.761Z,17.38
2023-03-29T05:27:07.153Z,17.38
2023-03-29T05:27:38.550Z,17.36
2023-03-29T05:28:09.942Z,17.37
2023-03-29T05:28:41.341Z,17.38
2023-03-29T05:29:12.734Z,17.38
2023-03-29T05:29:44.157Z,17.38
2023-03-29T05:30:15.609Z,17.39
2023-03-29T05:30:47.029Z,17.38
2023-03-29T05:31:18.466Z,17.37
2023-03-29T05:31:50.015Z,17.37
2023-03-29T05:32:21.538Z,17.37
2023-03-29T05:32:53.041Z,17.38
2023-03-29T05:33:24.527Z,17.37
2023-03-29T05:33:55.933Z,17.39
2023-03-29T05:34:27.372Z,17.38
2023-03-29T05:34:58.757Z,17.37
2023-03-29T05:35:30.264Z,17.39
2023-03-29T05:36:01.747Z,17.39
2023-03-29T05:36:33.271Z,17.38
2023-03-29T05:37:04.684Z,17.38
2023-03-29T05:37:36.088Z,17.39
2023-03-29T05:38:07.488Z,17.39
2023-03-29T05:38:38.923Z,17.39
2023-03-29T05:39:10.348Z,17.39
2023-03-29T05:39:41.764Z,17.39
2023-03-29T05:40:13.209Z,17.39
2023-03-29T05:40:44.690Z,17.38
2023-03-29T05:41:16.230Z,17.39
2023-03-29T05:41:47.627Z,17.38
2023-03-29T05:42:19.038Z,17.40
2023-03-29T05:42:50.430Z,17.39
2023-03-29T05:43:21.853Z,17.39
2023-03-29T05:43:53.280Z,17.39
2023-03-29T05:44:24.702Z,17.41
2023-03-29T05:44:56.122Z,17.40
2023-03-29T05:45:27.565Z,17.40
2023-03-29T05:45:59.007Z,17.41
2023-03-29T05:46:30.457Z,17.40
2023-03-29T05:47:01.872Z,17.40
2023-03-29T05:47:33.326Z,17.41
2023-03-29T05:48:04.806Z,17.41
2023-03-29T05:48:36.332Z,17.40
2023-03-29T05:49:07.746Z,17.40
2023-03-29T05:49:39.138Z,17.39
2023-03-29T05:50:10.555Z,17.40
2023-03-29T05:50:43.289Z,17.41
2023-03-29T05:51:15.809Z,17.40
2023-03-29T05:51:47.220Z,17.40
2023-03-29T05:52:18.624Z,17.39
2023-03-29T05:52:50.044Z,17.40
2023-03-29T05:53:21.448Z,17.39
2023-03-29T05:53:52.855Z,17.40
2023-03-29T05:54:24.286Z,17.40
2023-03-29T05:54:55.683Z,17.40
2023-03-29T05:55:27.114Z,17.40
2023-03-29T05:55:58.542Z,17.42
2023-03-29T05:56:29.954Z,17.41
2023-03-29T05:57:01.427Z,17.40
2023-03-29T05:57:32.890Z,17.38
2023-03-29T05:58:04.297Z,17.40
2023-03-29T05:58:35.715Z,17.40
2023-03-29T05:59:07.149Z,17.39
2023-03-29T05:59:38.564Z,17.41
2023-03-29T06:00:10.034Z,17.41
2023-03-29T06:00:41.642Z,17.40
2023-03-29T06:01:13.148Z,17.40
2023-03-29T06:01:44.578Z,17.41
2023-03-29T06:02:16.192Z,17.41
2023-03-29T06:02:47.850Z,17.39
2023-03-29T06:03:21.312Z,17.40
2023-03-29T06:03:53.706Z,17.41
2023-03-29T06:04:25.411Z,17.41
2023-03-29T06:04:56.954Z,17.42
2023-03-29T06:05:28.712Z,17.41
2023-03-29T06:06:00.170Z,17.42
2023-03-29T06:06:31.580Z,17.41
2023-03-29T06:07:03.000Z,17.41
2023-03-29T06:07:34.436Z,17.42
2023-03-29T06:08:05.884Z,17.43
2023-03-29T06:08:37.293Z,17.42
2023-03-29T06:09:08.766Z,17.43
2023-03-29T06:09:40.189Z,17.43
2023-03-29T06:10:11.615Z,17.43
2023-03-29T06:10:43.038Z,17.45
2023-03-29T06:11:14.465Z,17.43
2023-03-29T06:11:45.854Z,17.44
2023-03-29T06:12:17.365Z,17.43
2023-03-29T06:12:48.792Z,17.43
2023-03-29T06:13:20.189Z,17.45
2023-03-29T06:13:51.601Z,17.44
2023-03-29T06:14:22.999Z,17.45
2023-03-29T06:14:54.489Z,17.44
2023-03-29T06:15:25.948Z,17.45
2023-03-29T06:15:57.350Z,17.45
2023-03-29T06:16:28.769Z,17.45
2023-03-29T06:17:00.356Z,17.46
2023-03-29T06:17:31.914Z,17.45
2023-03-29T06:18:03.531Z,17.46
2023-03-29T06:18:35.057Z,17.46
2023-03-29T06:19:06.467Z,17.45
2023-03-29T06:19:37.870Z,17.46
2023-03-29T06:20:09.309Z,17.46
2023-03-29T06:20:40.722Z,17.46
2023-03-29T06:21:12.771Z,17.47
2023-03-29T06:21:44.193Z,17.47
2023-03-29T06:22:15.616Z,17.45
2023-03-29T06:22:47.016Z,17.46
2023-03-29T06:23:18.462Z,17.46
2023-03-29T06:23:49.860Z,17.47
2023-03-29T06:24:21.506Z,17.46
2023-03-29T06:24:52.905Z,17.48
2023-03-29T06:25:24.316Z,17.48
2023-03-29T06:25:55.721Z,17.46
2023-03-29T06:26:27.154Z,17.48
2023-03-29T06:26:58.566Z,17.48
2023-03-29T06:27:30.113Z,17.50
2023-03-29T06:28:01.535Z,17.49
2023-03-29T06:28:32.943Z,17.50
2023-03-29T06:29:04.386Z,17.51
2023-03-29T06:29:35.797Z,17.50
2023-03-29T06:30:07.239Z,17.51
2023-03-29T06:30:38.659Z,17.51
2023-03-29T06:31:10.224Z,17.51
2023-03-29T06:31:42.141Z,17.52
2023-03-29T06:32:13.605Z,17.53
2023-03-29T06:32:45.035Z,17.52
2023-03-29T06:33:16.491Z,17.52
2023-03-29T06:33:47.886Z,17.53
2023-03-29T06:34:19.296Z,17.54
2023-03-29T06:34:50.715Z,17.54
2023-03-29T06:35:22.146Z,17.55
2023-03-29T06:35:53.609Z,17.55
2023-03-29T06:36:25.000Z,17.55
2023-03-29T06:36:56.450Z,17.55
2023-03-29T06:37:27.847Z,17.55
2023-03-29T06:37:59.241Z,17.55
2023-03-29T06:38:30.668Z,17.56
2023-03-29T06:39:02.091Z,17.56
2023-03-29T06:39:33.486Z,17.56
2023-03-29T06:40:04.883Z,17.55
2023-03-29T06:40:36.296Z,17.56
2023-03-29T06:41:07.760Z,17.57
2023-03-29T06:41:39.180Z,17.57
2023-03-29T06:42:20.703Z,17.57
2023-03-29T06:42:53.136Z,17.59
2023-03-29T06:43:24.528Z,17.58
2023-03-29T06:43:55.934Z,17.58
2023-03-29T06:44:27.344Z,17.59
2023-03-29T06:44:58.753Z,17.61
2023-03-29T06:45:30.153Z,17.61